createdAt,value
2019-04-29T00:00:51.180Z,98845.25
2019-04-29T00:03:23.367Z,98840.05
2019-04-29T00:05:55.283Z,98852.47
2019-04-29T00:08:27.640Z,98838.83
2019-04-29T00:10:58.865Z,98839.53
2019-04-29T00:13:30.152Z,98836.97
2019-04-29T00:16:29.447Z,98826.17
2019-04-29T00:19:18.694Z,98828.98
2019-04-29T00:21:50.708Z,98805.34
2019-04-29T00:24:21.924Z,98839.67
2019-04-29T00:26:53.223Z,98834.33
2019-04-29T00:29:24.906Z,98816.44
2019-04-29T00:31:56.489Z,98796.92
2019-04-29T00:34:29.243Z,98814.55
2019-04-29T00:37:14.347Z,98817.77
2019-04-29T00:40:03.887Z,98810.98
2019-04-29T00:42:54.156Z,98788.48
2019-04-29T00:45:26.317Z,98782.37
2019-04-29T00:47:58.481Z,98780.25
2019-04-29T00:50:29.846Z,98768.03
2019-04-29T00:53:01.254Z,98760.97
2019-04-29T00:55:33.612Z,98739.77
2019-04-29T00:58:04.856Z,98720.50
2019-04-29T01:00:40.638Z,98698.80
2019-04-29T01:03:11.965Z,98695.96
2019-04-29T01:05:43.451Z,98673.67
2019-04-29T01:08:15.552Z,98668.45
2019-04-29T01:10:47.071Z,98680.55
2019-04-29T01:13:18.308Z,98664.39
2019-04-29T01:15:49.670Z,98655.55
2019-04-29T01:18:21.048Z,98654.71
2019-04-29T01:20:52.187Z,98650.45
2019-04-29T01:23:23.768Z,98648.23
2019-04-29T01:25:58.864Z,98649.19
2019-04-29T01:28:49.485Z,98624.09
2019-04-29T01:31:26.942Z,98627.59
2019-04-29T01:34:03.528Z,98616.91
2019-04-29T01:36:39.427Z,98607.55
2019-04-29T01:39:12.472Z,98593.35
2019-04-29T01:41:57.829Z,98583.25
2019-04-29T01:44:30.902Z,98569.51
2019-04-29T01:47:02.192Z,98557.02
2019-04-29T01:49:33.562Z,98547.66
2019-04-29T01:52:04.712Z,98544.73
2019-04-29T01:54:35.890Z,98539.52
2019-04-29T01:57:07.086Z,98525.06
2019-04-29T01:59:38.371Z,98515.58
2019-04-29T02:02:09.572Z,98509.52
2019-04-29T02:04:43.834Z,98501.63
2019-04-29T02:07:14.978Z,98497.23
2019-04-29T02:10:08.609Z,98480.98
2019-04-29T02:12:39.801Z,98480.12
2019-04-29T02:15:11.482Z,98475.99
2019-04-29T02:17:42.704Z,98499.30
2019-04-29T02:20:14.384Z,98415.34
2019-04-29T02:23:12.713Z,98392.58
2019-04-29T02:25:45.500Z,98398.56
2019-04-29T02:28:16.693Z,98387.45
2019-04-29T02:30:50.190Z,98390.23
2019-04-29T02:33:21.589Z,98398.15
2019-04-29T02:35:53.183Z,100316.90
2019-04-29T02:38:49.508Z,100350.54
2019-04-29T02:41:39.725Z,100372.73
2019-04-29T02:44:12.053Z,100435.55
2019-04-29T02:46:43.237Z,100446.38
2019-04-29T02:49:14.479Z,100424.20
2019-04-29T02:51:52.671Z,100431.75
2019-04-29T02:54:25.623Z,100444.03
2019-04-29T02:57:08.908Z,100444.22
2019-04-29T02:59:44.041Z,100445.31
2019-04-29T03:02:32.924Z,100455.46
2019-04-29T03:05:16.097Z,100450.83
2019-04-29T03:07:47.369Z,100470.10
2019-04-29T03:10:18.677Z,100491.27
2019-04-29T03:12:49.937Z,100499.47
2019-04-29T03:15:31.816Z,100503.64
2019-04-29T03:18:03.550Z,100511.38
2019-04-29T03:20:45.330Z,100510.20
2019-04-29T03:23:18.723Z,100499.98
2019-04-29T03:25:49.995Z,100525.33
2019-04-29T03:28:21.559Z,100544.85
2019-04-29T03:30:52.723Z,100542.25
2019-04-29T03:33:36.921Z,100551.95
2019-04-29T03:36:08.128Z,100590.25
2019-04-29T03:38:39.376Z,100672.94
2019-04-29T03:41:10.973Z,100720.53
2019-04-29T03:43:42.762Z,100749.23
2019-04-29T03:46:13.874Z,100755.09
2019-04-29T03:48:45.117Z,100789.64
2019-04-29T03:51:16.259Z,100833.94
2019-04-29T03:53:47.436Z,100877.20
2019-04-29T03:56:19.097Z,100871.58
2019-04-29T03:58:50.237Z,100855.37
2019-04-29T04:01:30.016Z,100935.37
2019-04-29T04:04:06.267Z,100957.31
2019-04-29T04:06:48.546Z,100967.35
2019-04-29T04:09:25.285Z,100710.19
2019-04-29T04:11:56.519Z,101124.61
2019-04-29T04:14:28.125Z,101311.69
2019-04-29T04:17:12.517Z,101358.97
2019-04-29T04:19:43.769Z,101282.53
2019-04-29T04:22:14.903Z,101365.03
2019-04-29T04:24:46.422Z,101399.20
2019-04-29T04:27:17.963Z,101489.22
2019-04-29T04:29:49.622Z,101542.84
2019-04-29T04:32:20.784Z,101625.06
2019-04-29T04:34:52.297Z,101683.77
2019-04-29T04:37:24.217Z,101701.24
2019-04-29T04:39:56.233Z,101798.58
2019-04-29T04:42:29.813Z,101853.34
2019-04-29T04:45:00.788Z,101920.36
2019-04-29T04:47:32.060Z,101973.74
2019-04-29T04:50:03.784Z,102027.39
2019-04-29T04:52:34.981Z,102060.54
2019-04-29T04:55:06.534Z,102083.03
2019-04-29T04:57:37.962Z,102068.73
2019-04-29T05:00:14.603Z,102107.11
2019-04-29T05:02:46.108Z,102175.13
2019-04-29T05:05:17.560Z,102154.60
2019-04-29T05:07:50.173Z,102594.82
2019-04-29T05:10:21.365Z,102642.56
2019-04-29T05:12:52.601Z,102620.63
2019-04-29T05:15:24.986Z,102655.50
2019-04-29T05:17:56.286Z,102645.56
2019-04-29T05:20:27.754Z,102638.33
2019-04-29T05:23:02.020Z,102856.52
2019-04-29T05:25:34.836Z,102897.52
2019-04-29T05:28:06.857Z,102907.79
2019-04-29T05:30:38.708Z,102924.70
2019-04-29T05:33:10.398Z,102936.72
2019-04-29T05:36:03.936Z,102947.84
2019-04-29T05:39:00.328Z,102976.75
2019-04-29T05:41:34.716Z,102987.09
2019-04-29T05:44:26.965Z,103005.41
2019-04-29T05:47:02.580Z,103036.17
2019-04-29T05:49:41.640Z,103038.83
2019-04-29T05:52:30.161Z,103033.98
2019-04-29T05:55:02.096Z,103052.78
2019-04-29T05:57:33.373Z,103071.50
2019-04-29T06:00:05.006Z,103073.30
2019-04-29T06:02:38.867Z,103078.10
2019-04-29T06:05:09.819Z,103085.11
2019-04-29T06:07:41.100Z,103092.78
2019-04-29T06:10:23.015Z,103098.95
2019-04-29T06:12:51.763Z,103094.98
2019-04-29T06:15:23.097Z,103116.91
2019-04-29T06:17:54.361Z,103118.29
2019-04-29T06:20:25.623Z,103125.39
2019-04-29T06:22:57.325Z,103000.73
2019-04-29T06:25:28.672Z,103020.34
2019-04-29T06:28:00.796Z,103025.17
2019-04-29T06:30:32.120Z,103034.13
2019-04-29T06:33:03.316Z,102670.27
2019-04-29T06:35:34.657Z,102770.66
2019-04-29T06:38:07.068Z,102833.66
2019-04-29T06:40:39.333Z,102911.05
2019-04-29T06:43:10.952Z,102996.44
2019-04-29T06:45:42.766Z,103056.00
2019-04-29T06:48:13.943Z,103100.94
2019-04-29T06:50:45.739Z,103091.55
2019-04-29T06:53:21.263Z,103089.96
2019-04-29T06:55:49.776Z,103097.06
2019-04-29T06:58:21.580Z,103110.44
2019-04-29T07:00:55.955Z,103007.09
2019-04-29T07:03:26.710Z,102694.11
2019-04-29T07:05:58.071Z,102599.84
2019-04-29T07:08:29.204Z,102560.67
2019-04-29T07:11:02.973Z,102484.01
2019-04-29T07:13:34.281Z,102474.33
2019-04-29T07:16:05.498Z,102463.17
2019-04-29T07:18:41.320Z,102447.55
2019-04-29T07:21:13.099Z,102439.93
2019-04-29T07:23:44.598Z,102424.56
2019-04-29T07:26:15.852Z,102401.02
2019-04-29T07:28:48.762Z,102408.81
2019-04-29T07:31:21.498Z,102386.27
2019-04-29T07:33:53.598Z,102380.86
2019-04-29T07:36:25.785Z,102388.52
2019-04-29T07:38:57.397Z,102377.44
2019-04-29T07:41:28.529Z,102370.59
2019-04-29T07:43:59.757Z,102369.56
2019-04-29T07:46:56.274Z,102373.20
2019-04-29T07:49:19.880Z,102374.87
2019-04-29T07:51:51.706Z,102363.27
2019-04-29T07:54:23.444Z,102373.23
2019-04-29T07:56:55.051Z,102376.03
2019-04-29T07:59:26.760Z,102380.36
2019-04-29T08:01:59.761Z,102378.41
2019-04-29T08:04:32.109Z,102372.78
2019-04-29T08:07:04.932Z,102371.70
2019-04-29T08:09:44.186Z,102360.28
2019-04-29T08:12:22.252Z,102364.64
2019-04-29T08:14:58.617Z,102372.77
2019-04-29T08:17:30.005Z,102369.51
2019-04-29T08:20:05.151Z,102349.37
2019-04-29T08:22:35.225Z,102356.27
2019-04-29T08:25:06.742Z,102340.20
2019-04-29T08:27:40.827Z,102341.16
2019-04-29T08:30:12.694Z,102336.13
2019-04-29T08:32:44.326Z,102330.88
2019-04-29T08:35:15.784Z,102317.11
2019-04-29T08:37:47.176Z,102318.78
2019-04-29T08:40:19.119Z,102333.80
2019-04-29T08:42:58.471Z,102362.72
2019-04-29T08:45:55.311Z,102566.13
2019-04-29T08:48:26.775Z,102573.67
2019-04-29T08:50:58.415Z,102581.64
2019-04-29T08:53:30.234Z,102587.80
2019-04-29T08:56:21.625Z,102729.23
2019-04-29T08:58:52.972Z,102652.87
2019-04-29T09:01:29.155Z,102722.91
2019-04-29T09:04:05.135Z,102820.19
2019-04-29T09:06:37.738Z,102941.92
2019-04-29T09:09:27.951Z,102884.09
2019-04-29T09:11:43.565Z,102860.28
2019-04-29T09:14:18.168Z,102839.35
2019-04-29T09:16:49.440Z,102805.72
2019-04-29T09:19:20.776Z,102762.11
2019-04-29T09:21:56.191Z,102731.22
2019-04-29T09:24:28.563Z,102703.28
2019-04-29T09:27:14.611Z,102685.44
2019-04-29T09:29:46.798Z,102667.77
2019-04-29T09:32:18.451Z,102647.58
2019-04-29T09:34:49.929Z,102614.03
2019-04-29T09:37:23.049Z,102576.44
2019-04-29T09:39:54.852Z,102514.58
2019-04-29T09:42:37.837Z,102473.64
2019-04-29T09:45:28.612Z,102418.38
2019-04-29T09:48:00.487Z,102367.90
2019-04-29T09:50:34.126Z,102306.48
2019-04-29T09:53:05.614Z,102269.05
2019-04-29T09:55:39.935Z,102166.75
2019-04-29T09:58:11.341Z,102071.30
2019-04-29T10:01:04.792Z,101970.13
2019-04-29T10:04:13.334Z,101847.19
2019-04-29T10:06:45.363Z,101707.23
2019-04-29T10:09:17.129Z,101597.34
2019-04-29T10:11:49.288Z,101513.77
2019-04-29T10:14:20.975Z,101454.51
2019-04-29T10:17:18.092Z,101403.83
2019-04-29T10:20:12.590Z,101353.16
2019-04-29T10:22:44.080Z,101317.33
2019-04-29T10:25:16.003Z,101291.23
2019-04-29T10:27:48.030Z,101277.75
2019-04-29T10:33:17.537Z,101231.11
2019-04-29T10:35:49.152Z,101247.37
2019-04-29T10:38:22.331Z,101269.20
2019-04-29T10:41:17.838Z,101284.84
2019-04-29T10:44:09.915Z,101309.38
2019-04-29T10:47:03.440Z,101334.42
2019-04-29T10:49:40.407Z,101346.92
2019-04-29T10:52:12.603Z,101344.05
2019-04-29T10:54:55.358Z,101393.95
2019-04-29T10:57:29.271Z,101409.39
2019-04-29T11:00:11.987Z,101401.02
2019-04-29T11:02:49.484Z,101400.08
2019-04-29T11:05:35.439Z,101400.92
2019-04-29T11:08:38.246Z,101398.36
2019-04-29T11:11:23.031Z,101434.76
2019-04-29T11:13:50.464Z,101445.27
2019-04-29T11:16:22.892Z,101440.59
2019-04-29T11:18:59.721Z,101455.28
2019-04-29T11:21:31.170Z,101469.31
2019-04-29T11:24:12.258Z,101483.50
2019-04-29T11:27:11.562Z,101503.20
2019-04-29T11:29:37.020Z,101500.17
2019-04-29T11:32:15.250Z,101487.89
2019-04-29T11:35:00.455Z,101487.26
2019-04-29T11:37:36.112Z,101484.94
2019-04-29T11:40:07.785Z,101486.34
2019-04-29T11:42:41.754Z,101514.08
2019-04-29T11:45:13.708Z,101532.18
2019-04-29T11:47:45.154Z,101553.34
2019-04-29T11:50:38.696Z,101576.50
2019-04-29T11:53:13.452Z,101604.28
2019-04-29T11:55:46.972Z,101608.49
2019-04-29T11:58:30.481Z,101641.42
2019-04-29T12:01:19.963Z,101677.31
2019-04-29T12:03:56.660Z,101693.43
2019-04-29T12:06:26.416Z,101717.75
2019-04-29T12:08:57.693Z,101718.80
2019-04-29T12:11:35.832Z,101738.92
2019-04-29T12:14:33.733Z,101841.95
2019-04-29T12:17:20.256Z,101915.64
2019-04-29T12:19:53.743Z,101993.16
2019-04-29T12:22:30.700Z,102053.97
2019-04-29T12:25:01.979Z,102037.37
2019-04-29T12:27:34.654Z,102025.38
2019-04-29T12:30:08.742Z,102032.42
2019-04-29T12:32:47.123Z,102035.04
2019-04-29T12:35:52.098Z,102039.57
2019-04-29T12:38:49.652Z,102030.80
2019-04-29T12:41:48.917Z,102034.93
2019-04-29T12:44:48.199Z,102032.23
2019-04-29T12:47:38.646Z,102029.67
2019-04-29T12:50:10.459Z,102032.90
2019-04-29T12:52:42.118Z,102031.95
2019-04-29T12:55:20.188Z,102034.52
2019-04-29T12:57:51.272Z,102031.42
2019-04-29T13:00:25.614Z,102037.48
2019-04-29T13:03:22.100Z,102033.45
2019-04-29T13:06:02.418Z,102030.33
2019-04-29T13:08:41.371Z,102031.41
2019-04-29T13:11:14.717Z,102014.07
2019-04-29T13:13:46.709Z,102021.77
2019-04-29T13:16:50.839Z,102021.78
2019-04-29T13:19:46.073Z,102012.81
2019-04-29T13:22:17.274Z,102021.02
2019-04-29T13:24:48.578Z,102015.76
2019-04-29T13:27:20.754Z,102005.66
2019-04-29T13:29:53.425Z,102005.17
2019-04-29T13:32:25.339Z,102002.73
2019-04-29T13:35:10.993Z,102001.12
2019-04-29T13:37:39.411Z,101999.22
2019-04-29T13:40:14.264Z,101996.73
2019-04-29T13:42:49.156Z,101995.31
2019-04-29T13:45:24.806Z,101989.08
2019-04-29T13:48:16.440Z,101989.08
2019-04-29T13:50:54.901Z,101989.93
2019-04-29T13:53:26.751Z,101989.55
2019-04-29T13:56:11.892Z,101998.37
2019-04-29T13:58:33.116Z,101988.89
2019-04-29T14:01:33.671Z,101992.54
2019-04-29T14:04:24.643Z,101984.74
2019-04-29T14:06:57.168Z,101986.98
2019-04-29T14:09:27.008Z,101989.09
2019-04-29T14:12:05.643Z,101994.14
2019-04-29T14:14:32.648Z,101984.87
2019-04-29T14:17:24.111Z,101986.78
2019-04-29T14:19:42.337Z,101988.12
2019-04-29T14:22:24.728Z,101989.25
2019-04-29T14:24:56.174Z,101988.91
2019-04-29T14:27:27.432Z,101986.47
2019-04-29T14:29:58.648Z,101981.91
2019-04-29T14:32:35.983Z,101981.71
2019-04-29T14:35:11.855Z,101978.70
2019-04-29T14:37:54.968Z,101980.99
2019-04-29T14:40:17.513Z,101982.30
2019-04-29T14:43:08.958Z,101986.98
2019-04-29T14:46:07.175Z,101979.11
2019-04-29T14:48:45.594Z,101983.26
2019-04-29T14:51:16.983Z,101986.90
2019-04-29T14:53:56.336Z,101987.20
2019-04-29T14:56:22.578Z,101975.34
2019-04-29T14:59:06.062Z,101978.60
2019-04-29T15:01:32.058Z,101979.80
2019-04-29T15:04:18.055Z,101976.89
2019-04-29T15:06:40.951Z,101972.59
2019-04-29T15:09:19.682Z,101975.91
2019-04-29T15:12:11.229Z,101969.45
2019-04-29T15:14:58.933Z,101966.87
2019-04-29T15:17:35.468Z,101976.21
2019-04-29T15:20:24.946Z,101966.00
2019-04-29T15:22:53.871Z,101971.66
2019-04-29T15:25:25.322Z,101974.94
2019-04-29T15:27:56.748Z,101979.36
2019-04-29T15:30:31.686Z,101977.06
2019-04-29T15:33:01.221Z,101970.56
2019-04-29T15:35:33.016Z,101977.81
2019-04-29T15:38:06.617Z,101975.13
2019-04-29T15:40:43.686Z,101977.08
2019-04-29T15:43:17.806Z,101970.56
2019-04-29T15:45:50.746Z,101980.50
2019-04-29T15:48:22.240Z,101974.89
2019-04-29T15:50:53.484Z,101975.05
2019-04-29T15:53:25.852Z,101978.44
2019-04-29T15:56:06.524Z,101974.03
2019-04-29T15:58:30.640Z,101974.88
2019-04-29T16:01:13.181Z,101981.02
2019-04-29T16:03:37.632Z,101977.80
2019-04-29T16:06:40.206Z,101982.39
2019-04-29T16:09:17.598Z,101979.20
2019-04-29T16:12:05.048Z,101979.84
2019-04-29T16:14:36.500Z,101980.64
2019-04-29T16:17:08.053Z,101982.48
2019-04-29T16:19:39.270Z,101985.10
2019-04-29T16:22:12.864Z,101984.67
2019-04-29T16:24:44.109Z,101988.05
2019-04-29T16:27:15.742Z,101985.61
2019-04-29T16:29:51.893Z,101988.12
2019-04-29T16:32:37.530Z,101986.02
2019-04-29T16:35:12.347Z,101991.88
2019-04-29T16:37:44.199Z,101990.16
2019-04-29T16:40:18.087Z,101991.97
2019-04-29T16:43:08.595Z,101991.54
2019-04-29T16:46:08.937Z,102001.50
2019-04-29T16:48:40.273Z,102000.63
2019-04-29T16:51:14.635Z,101996.56
2019-04-29T16:53:44.749Z,102002.80
2019-04-29T16:56:16.538Z,102009.82
2019-04-29T16:58:48.897Z,102007.98
2019-04-29T17:01:20.635Z,102007.55
2019-04-29T17:03:51.918Z,102008.50
2019-04-29T17:06:23.538Z,102013.69
2019-04-29T17:09:13.354Z,102020.88
2019-04-29T17:11:50.376Z,102013.34
2019-04-29T17:14:18.633Z,102017.20
2019-04-29T17:16:49.931Z,102024.13
2019-04-29T17:19:21.231Z,102020.81
2019-04-29T17:21:52.771Z,102024.72
2019-04-29T17:24:24.329Z,102030.31
2019-04-29T17:27:23.688Z,102019.25
2019-04-29T17:30:10.320Z,102020.28
2019-04-29T17:32:51.647Z,102021.08
2019-04-29T17:35:36.931Z,102023.92
2019-04-29T17:38:12.466Z,102025.44
2019-04-29T17:40:50.894Z,102023.27
2019-04-29T17:43:38.264Z,102024.17
2019-04-29T17:46:29.606Z,102021.92
2019-04-29T17:49:13.835Z,102024.69
2019-04-29T17:51:45.918Z,102022.13
2019-04-29T17:54:26.059Z,102025.83
2019-04-29T17:57:31.504Z,102025.48
2019-04-29T18:00:28.723Z,102033.81
2019-04-29T18:03:41.353Z,102037.48
2019-04-29T18:06:43.590Z,102033.33
2019-04-29T18:09:37.262Z,102031.62
2019-04-29T18:12:21.707Z,102031.84
2019-04-29T18:14:55.218Z,102032.91
2019-04-29T18:17:37.539Z,102039.02
2019-04-29T18:20:33.404Z,102032.96
2019-04-29T18:23:21.438Z,102038.67
2019-04-29T18:26:00.511Z,102035.31
2019-04-29T18:28:31.943Z,102038.33
2019-04-29T18:31:05.786Z,102036.93
2019-04-29T18:33:40.211Z,102036.78
2019-04-29T18:36:21.558Z,102045.37
2019-04-29T18:38:47.362Z,102037.91
2019-04-29T18:41:24.578Z,102044.63
2019-04-29T18:43:50.896Z,102046.61
2019-04-29T18:46:22.243Z,102041.92
2019-04-29T18:48:55.906Z,102037.25
2019-04-29T18:51:28.758Z,102043.70
2019-04-29T18:53:59.745Z,102042.38
2019-04-29T18:56:32.246Z,102052.09
2019-04-29T18:59:04.682Z,102053.38
2019-04-29T19:01:36.022Z,102049.83
2019-04-29T19:04:16.717Z,102050.53
2019-04-29T19:06:46.014Z,102049.47
2019-04-29T19:09:20.800Z,102049.47
2019-04-29T19:11:53.221Z,102056.03
2019-04-29T19:14:28.196Z,102055.31
2019-04-29T19:17:01.226Z,102059.35
2019-04-29T19:19:35.271Z,102070.45
2019-04-29T19:22:07.690Z,102076.59
2019-04-29T19:24:38.195Z,102076.59
2019-04-29T19:27:10.113Z,102077.81
2019-04-29T19:29:43.254Z,102078.50
2019-04-29T19:32:18.906Z,102080.11
2019-04-29T19:34:54.884Z,102082.30
2019-04-29T19:37:25.381Z,102080.29
2019-04-29T19:39:59.622Z,102081.81
2019-04-29T19:42:35.638Z,102081.53
2019-04-29T19:45:06.263Z,102076.16
2019-04-29T19:47:37.462Z,102083.88
2019-04-29T19:50:16.650Z,102084.22
2019-04-29T19:52:47.244Z,102077.44
2019-04-29T19:55:18.547Z,102073.59
2019-04-29T19:57:52.071Z,102079.17
2019-04-29T20:00:29.078Z,102074.97
2019-04-29T20:02:57.276Z,102082.53
2019-04-29T20:05:41.406Z,102089.26
2019-04-29T20:08:21.593Z,102087.16
2019-04-29T20:10:51.272Z,102081.11
2019-04-29T20:13:19.661Z,102077.52
2019-04-29T20:16:11.004Z,102072.30
2019-04-29T20:18:58.821Z,102073.99
2019-04-29T20:21:29.765Z,102074.33
2019-04-29T20:24:01.191Z,102074.56
2019-04-29T20:26:33.194Z,102076.17
2019-04-29T20:29:06.993Z,102077.34
2019-04-29T20:31:39.115Z,102081.16
2019-04-29T20:34:10.657Z,102074.55
2019-04-29T20:36:43.129Z,102074.48
2019-04-29T20:39:19.591Z,102076.23
2019-04-29T20:41:48.946Z,102080.82
2019-04-29T20:44:20.693Z,102071.10
2019-04-29T20:47:15.687Z,102074.75
2019-04-29T20:49:26.281Z,102081.13
2019-04-29T20:52:13.448Z,102082.22
2019-04-29T20:54:42.867Z,102087.91
2019-04-29T20:57:20.411Z,102089.20
2019-04-29T20:59:50.363Z,102090.53
2019-04-29T21:02:31.471Z,102093.17
2019-04-29T21:04:57.778Z,102095.86
2019-04-29T21:07:26.963Z,102104.06
2019-04-29T21:10:00.032Z,102101.54
2019-04-29T21:12:49.439Z,102108.51
2019-04-29T21:15:29.376Z,102114.67
2019-04-29T21:18:00.564Z,102104.37
2019-04-29T21:20:31.773Z,102103.77
2019-04-29T21:23:04.252Z,102106.92
2019-04-29T21:25:37.137Z,102108.64
2019-04-29T21:28:09.164Z,102105.63
2019-04-29T21:30:42.697Z,102106.88
2019-04-29T21:33:20.005Z,102102.92
2019-04-29T21:35:59.360Z,102104.70
2019-04-29T21:38:48.642Z,102108.39
2019-04-29T21:41:29.237Z,102106.83
2019-04-29T21:44:01.891Z,102110.52
2019-04-29T21:46:35.102Z,102100.51
2019-04-29T21:49:11.716Z,102105.34
2019-04-29T21:51:41.837Z,102107.75
2019-04-29T21:54:14.209Z,102108.89
2019-04-29T21:56:47.936Z,102114.54
2019-04-29T21:59:19.511Z,102114.41
2019-04-29T22:01:50.687Z,102106.97
2019-04-29T22:04:22.107Z,102114.20
2019-04-29T22:06:53.415Z,102107.84
2019-04-29T22:09:35.865Z,102111.57
2019-04-29T22:11:58.882Z,102110.38
2019-04-29T22:14:30.638Z,102115.45
2019-04-29T22:17:02.321Z,102112.14
2019-04-29T22:19:35.080Z,102107.88
2019-04-29T22:22:06.851Z,102099.70
2019-04-29T22:24:38.608Z,102102.19
2019-04-29T22:27:09.893Z,102101.09
2019-04-29T22:29:42.371Z,102100.37
2019-04-29T22:32:15.067Z,102090.13
2019-04-29T22:34:49.490Z,102087.11
2019-04-29T22:37:20.808Z,102081.98
2019-04-29T22:39:53.237Z,102083.04
2019-04-29T22:42:43.322Z,102085.94
2019-04-29T22:45:16.174Z,102089.87
2019-04-29T22:48:16.340Z,102085.39
2019-04-29T22:50:40.156Z,102086.05
2019-04-29T22:53:11.333Z,102085.57
2019-04-29T22:55:42.869Z,102083.70
2019-04-29T22:58:15.112Z,102088.88
2019-04-29T23:00:46.558Z,102092.63
2019-04-29T23:03:17.792Z,102085.32
2019-04-29T23:05:49.004Z,102083.98
2019-04-29T23:08:20.152Z,102078.73
2019-04-29T23:10:51.381Z,102086.48
2019-04-29T23:13:22.580Z,102084.19
2019-04-29T23:16:01.087Z,102078.40
2019-04-29T23:18:29.135Z,102082.89
2019-04-29T23:21:16.283Z,102079.58
2019-04-29T23:23:49.698Z,102081.88
2019-04-29T23:26:21.182Z,102078.40
2019-04-29T23:28:52.807Z,102080.21
2019-04-29T23:31:27.208Z,102081.13
2019-04-29T23:33:57.049Z,102078.10
2019-04-29T23:36:28.376Z,102083.03
2019-04-29T23:38:59.642Z,102079.62
2019-04-29T23:41:33.004Z,102075.42
2019-04-29T23:44:08.742Z,102077.22
2019-04-29T23:46:37.597Z,102081.14
2019-04-29T23:49:08.908Z,102079.84
2019-04-29T23:51:40.274Z,102083.19
2019-04-29T23:54:11.484Z,102070.61
2019-04-29T23:57:16.421Z,102073.69
